Terminal Aerodrome Forecast
Issued by NWS

Home | Current Version | Previous Version | Text Only | Print | Product List | Glossary On
Versions: 1 2 3 4 5 6 7 8 9 10 11 12 13 14 15 16 17 18
000
FTUS43 KAPX 041613 AAB
TAFPLN
TAF AMD
KPLN 041613Z 0416/0512 14004KT P6SM OVC040
     FM041900 16006KT 4SM -RASN OVC035
      TEMPO 0420/0422 2SM -SN OVC025
     FM042200 15005KT 2SM -SN OVC012
     FM050000 15005KT 1 1/2SM -SN OVC008
     FM050600 19004KT 2SM -SN BR OVC008
     FM050900 24006KT 5SM -SNDZ BR OVC012=

USA.gov is the U.S. government's official web portal to all federal, state and local government web resources and services.